createdAt,value
2022-11-03T00:01:35.215Z,63.04
2022-11-03T00:04:02.958Z,62.97
2022-11-03T00:06:32.714Z,62.69
2022-11-03T00:09:01.564Z,62.54
2022-11-03T00:11:29.551Z,62.77
2022-11-03T00:13:58.009Z,62.65
2022-11-03T00:16:25.776Z,62.71
2022-11-03T00:18:53.840Z,62.86
2022-11-03T00:21:21.894Z,62.61
2022-11-03T00:23:51.922Z,62.72
2022-11-03T00:26:21.720Z,63.00
2022-11-03T00:28:51.306Z,62.74
2022-11-03T00:31:20.546Z,62.84
2022-11-03T00:33:48.997Z,63.14
2022-11-03T00:36:18.999Z,62.78
2022-11-03T00:38:47.180Z,63.02
2022-11-03T00:41:17.738Z,62.77
2022-11-03T00:43:45.630Z,62.74
2022-11-03T00:46:13.820Z,62.90
2022-11-03T00:48:41.567Z,63.19
2022-11-03T00:51:11.707Z,63.29
2022-11-03T00:53:40.938Z,63.13
2022-11-03T00:56:11.798Z,63.15
2022-11-03T00:58:42.257Z,63.57
2022-11-03T01:01:12.854Z,63.63
2022-11-03T01:04:03.270Z,63.38
2022-11-03T01:06:49.785Z,63.45
2022-11-03T01:09:18.013Z,63.75
2022-11-03T01:11:54.378Z,63.59
2022-11-03T01:14:24.105Z,63.87
2022-11-03T01:16:51.881Z,64.00
2022-11-03T01:19:19.634Z,64.07
2022-11-03T01:21:47.492Z,64.38
2022-11-03T01:24:15.392Z,64.24
2022-11-03T01:26:43.244Z,64.43
2022-11-03T01:29:11.120Z,64.28
2022-11-03T01:31:40.584Z,64.60
2022-11-03T01:34:08.631Z,64.67
2022-11-03T01:36:36.379Z,65.09
2022-11-03T01:39:04.271Z,65.08
2022-11-03T01:41:32.004Z,65.29
2022-11-03T01:44:25.900Z,65.20
2022-11-03T01:47:00.783Z,65.27
2022-11-03T01:49:33.833Z,65.53
2022-11-03T01:52:04.984Z,65.53
2022-11-03T01:54:34.367Z,65.75
2022-11-03T01:57:04.927Z,65.66
2022-11-03T01:59:32.875Z,66.07
2022-11-03T02:02:02.313Z,65.66
2022-11-03T02:04:32.925Z,66.09
2022-11-03T02:07:12.528Z,66.27
2022-11-03T02:09:40.317Z,66.27
2022-11-03T02:12:09.838Z,66.10
2022-11-03T02:14:42.193Z,66.25
2022-11-03T02:17:14.056Z,66.43
2022-11-03T02:19:45.506Z,66.70
2022-11-03T02:22:28.228Z,66.60
2022-11-03T02:24:59.502Z,66.76
2022-11-03T02:27:28.790Z,66.75
2022-11-03T02:29:57.496Z,67.11
2022-11-03T02:32:29.826Z,67.05
2022-11-03T02:35:04.663Z,67.01
2022-11-03T02:37:36.857Z,67.00
2022-11-03T02:40:08.358Z,67.39
2022-11-03T02:42:40.494Z,67.22
2022-11-03T02:45:14.791Z,67.19
2022-11-03T02:47:46.371Z,67.53
2022-11-03T02:50:14.143Z,67.54
2022-11-03T02:52:44.031Z,67.62
2022-11-03T02:55:17.251Z,67.78
2022-11-03T02:57:52.254Z,67.88
2022-11-03T03:00:20.242Z,68.04
2022-11-03T03:02:56.844Z,68.21
2022-11-03T03:05:27.542Z,68.06
2022-11-03T03:08:01.085Z,68.21
2022-11-03T03:10:32.555Z,68.20
2022-11-03T03:13:04.628Z,68.17
2022-11-03T03:15:41.961Z,68.19
2022-11-03T03:18:18.213Z,68.43
2022-11-03T03:20:57.119Z,68.32
2022-11-03T03:23:27.952Z,68.89
2022-11-03T03:26:01.370Z,68.96
2022-11-03T03:28:35.005Z,68.97
2022-11-03T03:31:06.721Z,69.12
2022-11-03T03:33:35.576Z,69.00
2022-11-03T03:36:05.713Z,69.24
2022-11-03T03:38:38.898Z,69.01
2022-11-03T03:41:10.802Z,68.99
2022-11-03T03:43:41.753Z,69.38
2022-11-03T03:46:12.829Z,69.29
2022-11-03T03:48:40.923Z,69.50
2022-11-03T03:51:08.814Z,69.47
2022-11-03T03:53:36.610Z,69.48
2022-11-03T03:56:05.788Z,69.73
2022-11-03T03:58:33.676Z,69.53
2022-11-03T04:01:02.890Z,69.58
2022-11-03T04:03:30.660Z,69.78
2022-11-03T04:05:58.469Z,69.72
2022-11-03T04:08:26.196Z,69.48
2022-11-03T04:11:11.320Z,69.56
2022-11-03T04:13:56.305Z,69.89
2022-11-03T04:16:42.704Z,69.72
2022-11-03T04:19:29.416Z,69.81
2022-11-03T04:22:14.720Z,69.56
2022-11-03T04:24:42.520Z,69.99
2022-11-03T04:27:26.948Z,69.76
2022-11-03T04:29:58.891Z,70.13
2022-11-03T04:32:28.316Z,70.11
2022-11-03T04:34:56.166Z,70.27
2022-11-03T04:37:23.906Z,70.51
2022-11-03T04:39:51.682Z,70.54
2022-11-03T04:42:21.936Z,70.43
2022-11-03T04:44:51.017Z,70.41
2022-11-03T04:47:19.843Z,70.68
2022-11-03T04:49:50.418Z,70.73
2022-11-03T04:52:21.177Z,70.89
2022-11-03T04:54:51.839Z,71.22
2022-11-03T04:57:19.595Z,71.02
2022-11-03T04:59:50.833Z,70.90
2022-11-03T05:02:21.394Z,71.19
2022-11-03T05:04:50.574Z,71.29
2022-11-03T05:07:25.446Z,71.18
2022-11-03T05:09:53.366Z,71.61
2022-11-03T05:12:22.513Z,71.65
2022-11-03T05:14:55.472Z,71.55
2022-11-03T05:17:28.822Z,71.54
2022-11-03T05:20:01.173Z,71.83
2022-11-03T05:22:35.149Z,71.94
2022-11-03T05:25:06.260Z,71.92
2022-11-03T05:27:34.339Z,71.73
2022-11-03T05:30:02.125Z,71.83
2022-11-03T05:32:32.278Z,71.71
2022-11-03T05:35:02.320Z,71.68
2022-11-03T05:37:32.354Z,72.09
2022-11-03T05:40:01.751Z,72.01
2022-11-03T05:42:34.753Z,71.79
2022-11-03T05:45:05.756Z,71.70
2022-11-03T05:47:37.438Z,71.62
2022-11-03T05:50:17.280Z,71.44
2022-11-03T05:52:46.756Z,71.71
2022-11-03T05:55:26.589Z,71.49
2022-11-03T05:57:56.534Z,71.60
2022-11-03T06:00:30.244Z,71.85
2022-11-03T06:02:59.076Z,71.61
2022-11-03T06:05:29.399Z,71.73
2022-11-03T06:08:01.610Z,71.94
2022-11-03T06:10:32.371Z,71.72
2022-11-03T06:13:03.988Z,71.94
2022-11-03T06:15:35.082Z,71.88
2022-11-03T06:18:14.139Z,71.82
2022-11-03T06:20:45.550Z,71.84
2022-11-03T06:23:18.789Z,72.00
2022-11-03T06:25:47.105Z,72.05
2022-11-03T06:28:19.847Z,72.21
2022-11-03T06:30:48.237Z,72.12
2022-11-03T06:33:21.528Z,71.93
2022-11-03T06:35:54.683Z,72.10
2022-11-03T06:38:24.839Z,71.83
2022-11-03T06:40:53.153Z,71.88
2022-11-03T06:43:24.592Z,71.86
2022-11-03T06:45:54.948Z,71.78
2022-11-03T06:48:28.448Z,71.43
2022-11-03T06:50:59.965Z,71.62
2022-11-03T06:53:30.633Z,71.47
2022-11-03T06:55:58.892Z,71.55
2022-11-03T06:58:31.764Z,71.60
2022-11-03T07:01:04.019Z,71.46
2022-11-03T07:03:33.371Z,71.38
2022-11-03T07:06:04.556Z,71.12
2022-11-03T07:08:36.408Z,71.21
2022-11-03T07:11:10.908Z,70.75
2022-11-03T07:13:38.741Z,70.92
2022-11-03T07:16:17.721Z,70.86
2022-11-03T07:18:47.836Z,70.61
2022-11-03T07:21:39.236Z,70.65
2022-11-03T07:24:17.572Z,70.19
2022-11-03T07:26:45.396Z,70.22
2022-11-03T07:29:21.415Z,70.26
2022-11-03T07:31:50.111Z,70.03
2022-11-03T07:34:23.222Z,70.21
2022-11-03T07:36:55.984Z,70.07
2022-11-03T07:39:24.254Z,69.82
2022-11-03T07:41:52.535Z,69.89
2022-11-03T07:44:21.880Z,69.70
2022-11-03T07:46:51.084Z,69.86
2022-11-03T07:49:27.477Z,69.48
2022-11-03T07:51:58.490Z,69.25
2022-11-03T07:54:31.285Z,69.23
2022-11-03T07:57:01.238Z,69.18
2022-11-03T07:59:32.378Z,69.14
2022-11-03T08:02:02.911Z,68.99
2022-11-03T08:04:32.920Z,68.77
2022-11-03T08:07:02.206Z,68.51
2022-11-03T08:09:29.973Z,68.25
2022-11-03T08:11:57.777Z,68.20
2022-11-03T08:14:25.457Z,68.17
2022-11-03T08:16:53.194Z,68.13
2022-11-03T08:19:20.891Z,67.97
2022-11-03T08:21:48.612Z,68.03
2022-11-03T08:24:17.759Z,67.92
2022-11-03T08:26:45.507Z,67.75
2022-11-03T08:29:13.304Z,67.98
2022-11-03T08:31:41.081Z,68.24
2022-11-03T08:34:08.805Z,67.72
2022-11-03T08:36:36.582Z,67.88
2022-11-03T08:39:05.116Z,67.95
2022-11-03T08:41:34.239Z,67.74
2022-11-03T08:44:01.974Z,67.45
2022-11-03T08:46:29.757Z,67.67
2022-11-03T08:48:57.526Z,67.67
2022-11-03T08:51:25.532Z,67.20
2022-11-03T08:53:54.139Z,67.18
2022-11-03T08:56:22.973Z,67.09
2022-11-03T08:58:52.503Z,67.11
2022-11-03T09:01:20.347Z,66.90
2022-11-03T09:03:48.226Z,66.52
2022-11-03T09:06:15.997Z,66.69
2022-11-03T09:11:31.626Z,66.54
2022-11-03T09:14:00.715Z,66.19
2022-11-03T09:16:28.615Z,66.17
2022-11-03T09:18:56.337Z,66.40
2022-11-03T09:21:24.077Z,66.06
2022-11-03T09:23:51.761Z,66.11
2022-11-03T09:26:20.492Z,66.16
2022-11-03T09:28:49.316Z,65.84
2022-11-03T09:31:19.082Z,66.01
2022-11-03T09:33:46.917Z,65.56
2022-11-03T09:36:15.093Z,65.77
2022-11-03T09:38:42.994Z,65.51
2022-11-03T09:41:26.265Z,65.43
2022-11-03T09:44:03.340Z,65.27
2022-11-03T09:46:32.814Z,64.85
2022-11-03T09:49:00.831Z,64.17
2022-11-03T09:51:29.402Z,64.28
2022-11-03T09:53:58.841Z,63.95
2022-11-03T09:56:27.814Z,63.71
2022-11-03T09:58:55.624Z,63.67
2022-11-03T10:01:23.678Z,63.27
2022-11-03T10:03:53.313Z,63.39
2022-11-03T10:06:21.403Z,63.45
2022-11-03T10:08:50.216Z,62.96
2022-11-03T10:11:18.533Z,63.11
2022-11-03T10:13:49.095Z,62.97
2022-11-03T10:16:19.720Z,63.11
2022-11-03T10:18:47.962Z,63.00
2022-11-03T10:21:19.493Z,62.80
2022-11-03T10:23:50.651Z,62.87
2022-11-03T10:26:20.452Z,62.35
2022-11-03T10:29:03.658Z,62.57
2022-11-03T10:31:36.536Z,62.67
2022-11-03T10:34:05.074Z,62.16
2022-11-03T10:36:35.963Z,62.41
2022-11-03T10:39:26.604Z,62.24
2022-11-03T10:41:59.146Z,61.88
2022-11-03T10:44:28.818Z,61.52
2022-11-03T10:46:58.292Z,61.16
2022-11-03T10:49:26.409Z,61.19
2022-11-03T10:52:00.871Z,60.94
2022-11-03T10:54:29.778Z,60.45
2022-11-03T10:56:58.236Z,60.62
2022-11-03T10:59:32.181Z,60.26
2022-11-03T11:02:01.233Z,59.98
2022-11-03T11:04:29.345Z,60.20
2022-11-03T11:06:58.604Z,59.86
2022-11-03T11:09:29.370Z,59.64
2022-11-03T11:12:02.387Z,59.28
2022-11-03T11:14:39.207Z,59.47
2022-11-03T11:17:07.293Z,58.95
2022-11-03T11:20:08.419Z,58.65
2022-11-03T11:22:37.529Z,58.56
2022-11-03T11:25:05.655Z,58.34
2022-11-03T11:28:00.900Z,57.63
2022-11-03T11:31:05.281Z,57.18
2022-11-03T11:33:34.397Z,57.19
2022-11-03T11:36:20.255Z,56.96
2022-11-03T11:39:09.356Z,56.26
2022-11-03T11:42:13.133Z,55.99
2022-11-03T11:44:49.921Z,55.55
2022-11-03T11:47:24.090Z,55.42
2022-11-03T11:50:13.403Z,55.28
2022-11-03T11:52:44.277Z,55.69
2022-11-03T11:55:21.135Z,55.25
2022-11-03T11:57:49.703Z,54.87
2022-11-03T12:00:23.952Z,55.28
2022-11-03T12:02:52.600Z,55.09
2022-11-03T12:05:22.471Z,54.93
2022-11-03T12:07:50.184Z,55.32
2022-11-03T12:10:22.718Z,55.43
2022-11-03T12:12:51.363Z,55.59
2022-11-03T12:15:49.384Z,55.46
2022-11-03T12:18:39.133Z,55.54
2022-11-03T12:21:09.784Z,55.39
2022-11-03T12:23:41.248Z,55.50
2022-11-03T12:26:40.588Z,55.96
2022-11-03T12:30:06.526Z,56.17
2022-11-03T12:32:35.446Z,56.51
2022-11-03T12:35:03.919Z,56.30
2022-11-03T12:37:31.853Z,56.32
2022-11-03T12:39:59.738Z,56.28
2022-11-03T12:42:29.151Z,56.42
2022-11-03T12:44:57.139Z,56.72
2022-11-03T12:47:25.420Z,56.60
2022-11-03T12:49:53.521Z,56.80
2022-11-03T12:52:21.555Z,55.93
2022-11-03T12:54:50.087Z,55.98
2022-11-03T12:57:18.174Z,56.29
2022-11-03T12:59:47.552Z,56.03
2022-11-03T13:02:15.878Z,56.17
2022-11-03T13:05:47.203Z,56.28
2022-11-03T13:08:15.452Z,55.73
2022-11-03T13:10:43.493Z,56.02
2022-11-03T13:13:11.529Z,56.13
2022-11-03T13:15:53.536Z,56.23
2022-11-03T13:18:57.099Z,56.20
2022-11-03T13:21:25.686Z,56.63
2022-11-03T13:23:54.382Z,56.30
2022-11-03T13:26:22.350Z,56.51
2022-11-03T13:28:50.468Z,56.41
2022-11-03T13:31:19.902Z,56.74
2022-11-03T13:33:52.473Z,56.84
2022-11-03T13:39:19.966Z,56.84
2022-11-03T13:41:47.917Z,56.45
2022-11-03T14:43:45.933Z,58.36
2022-11-03T14:47:23.248Z,58.23
2022-11-03T14:50:06.285Z,58.44
2022-11-03T14:52:34.215Z,58.55
2022-11-03T14:55:03.400Z,59.32
2022-11-03T14:57:31.154Z,60.70
2022-11-03T14:59:58.915Z,63.49
2022-11-03T15:02:26.762Z,63.29
2022-11-03T15:04:54.537Z,64.35
2022-11-03T15:07:23.802Z,64.35
2022-11-03T15:09:51.492Z,64.77
2022-11-03T15:12:19.232Z,65.49
2022-11-03T15:14:47.001Z,66.81
2022-11-03T15:17:14.810Z,66.17
2022-11-03T15:19:42.655Z,66.35
2022-11-03T15:22:10.608Z,67.80
2022-11-03T15:27:27.511Z,69.03
2022-11-03T15:29:55.325Z,70.16
2022-11-03T15:32:23.075Z,71.76
2022-11-03T15:34:50.764Z,71.62
2022-11-03T15:37:18.616Z,70.92
2022-11-03T15:39:47.786Z,71.89
2022-11-03T15:42:15.497Z,71.63
2022-11-03T15:44:43.325Z,72.12
2022-11-03T15:47:11.233Z,72.17
2022-11-03T15:49:39.032Z,72.36
2022-11-03T15:52:06.898Z,72.48
2022-11-03T15:54:38.440Z,72.75
2022-11-03T15:57:10.709Z,72.41
2022-11-03T15:59:39.285Z,73.03
2022-11-03T16:02:14.182Z,72.88
2022-11-03T16:04:56.481Z,73.94
2022-11-03T16:07:24.324Z,73.98
2022-11-03T16:09:52.116Z,74.12
2022-11-03T16:12:23.475Z,75.14
2022-11-03T16:14:51.352Z,74.69
2022-11-03T16:17:19.310Z,74.89
2022-11-03T16:19:47.114Z,75.07
2022-11-03T16:22:15.467Z,75.40
2022-11-03T16:24:44.247Z,74.67
2022-11-03T16:27:11.995Z,74.71
2022-11-03T16:29:41.151Z,75.52
2022-11-03T16:32:08.939Z,75.71
2022-11-03T16:34:36.679Z,75.83
2022-11-03T16:37:04.967Z,75.95
2022-11-03T16:39:33.960Z,76.08
2022-11-03T16:42:03.250Z,76.48
2022-11-03T16:44:30.992Z,76.62
2022-11-03T16:47:00.355Z,76.46
2022-11-03T16:49:28.285Z,76.63
2022-11-03T16:51:56.023Z,76.83
2022-11-03T16:54:23.808Z,76.03
2022-11-03T16:56:54.680Z,76.33
2022-11-03T16:59:24.325Z,76.50
2022-11-03T17:01:52.140Z,76.83
2022-11-03T17:04:21.371Z,76.56
2022-11-03T17:06:49.142Z,76.97
2022-11-03T17:09:16.937Z,77.41
2022-11-03T17:11:44.865Z,77.44
2022-11-03T17:14:14.250Z,77.45
2022-11-03T17:16:45.470Z,77.68
2022-11-03T17:19:13.672Z,78.03
2022-11-03T17:21:43.202Z,78.04
2022-11-03T17:24:13.365Z,77.49
2022-11-03T17:26:52.344Z,77.81
2022-11-03T17:29:23.528Z,78.06
2022-11-03T17:31:51.876Z,78.61
2022-11-03T17:34:23.808Z,77.47
2022-11-03T17:36:55.180Z,77.95
2022-11-03T17:39:29.177Z,78.44
2022-11-03T17:42:06.062Z,78.12
2022-11-03T17:44:33.842Z,78.36
2022-11-03T17:47:01.579Z,78.42
2022-11-03T17:49:29.500Z,78.04
2022-11-03T17:51:59.538Z,77.88
2022-11-03T17:54:29.642Z,77.94
2022-11-03T17:56:57.673Z,78.30
2022-11-03T17:59:25.501Z,78.00
2022-11-03T18:01:53.783Z,78.27
2022-11-03T18:04:21.687Z,78.35
2022-11-03T18:06:49.544Z,78.00
2022-11-03T18:09:18.680Z,78.05
2022-11-03T18:12:04.149Z,77.91
2022-11-03T18:14:32.037Z,77.84
2022-11-03T18:17:00.163Z,77.28
2022-11-03T18:19:28.050Z,77.96
2022-11-03T18:21:55.855Z,77.79
2022-11-03T18:24:26.799Z,77.33
2022-11-03T18:26:54.618Z,78.13
2022-11-03T18:29:22.392Z,77.78
2022-11-03T18:31:50.881Z,77.47
2022-11-03T18:34:23.178Z,77.18
2022-11-03T18:36:53.007Z,77.88
2022-11-03T18:39:26.559Z,78.56
2022-11-03T18:41:56.906Z,77.85
2022-11-03T18:44:28.216Z,77.67
2022-11-03T18:46:57.752Z,78.23
2022-11-03T18:49:27.175Z,77.92
2022-11-03T18:52:02.546Z,77.52
2022-11-03T18:54:35.292Z,77.67
2022-11-03T18:57:04.137Z,77.13
2022-11-03T18:59:36.897Z,77.49
2022-11-03T19:02:17.955Z,77.65
2022-11-03T19:04:46.467Z,77.32
2022-11-03T19:07:16.704Z,78.77
2022-11-03T19:09:46.594Z,77.21
2022-11-03T19:12:16.473Z,76.68
2022-11-03T19:14:46.649Z,77.02
2022-11-03T19:17:25.159Z,77.01
2022-11-03T19:19:53.821Z,77.49
2022-11-03T19:22:23.480Z,77.63
2022-11-03T19:24:52.893Z,77.98
2022-11-03T19:27:23.949Z,78.37
2022-11-03T19:29:51.739Z,78.43
2022-11-03T19:32:25.325Z,78.97
2022-11-03T19:34:58.031Z,78.90
2022-11-03T19:37:29.773Z,79.08
2022-11-03T19:40:01.821Z,78.80
2022-11-03T19:42:28.614Z,79.20
2022-11-03T19:44:58.118Z,79.36
2022-11-03T19:47:31.671Z,79.38
2022-11-03T19:50:02.489Z,79.37
2022-11-03T19:52:31.712Z,79.44
2022-11-03T19:55:05.632Z,79.58
2022-11-03T19:57:33.912Z,79.56
2022-11-03T20:00:01.693Z,79.38
2022-11-03T20:02:32.537Z,80.09
2022-11-03T20:05:00.381Z,79.73
2022-11-03T20:07:31.463Z,79.96
2022-11-03T20:10:01.154Z,80.22
2022-11-03T20:12:32.575Z,80.53
2022-11-03T20:15:00.320Z,81.08
2022-11-03T20:17:28.164Z,80.33
2022-11-03T20:19:55.955Z,80.62
2022-11-03T20:22:29.317Z,80.60
2022-11-03T20:25:01.595Z,80.97
2022-11-03T20:27:32.029Z,81.15
2022-11-03T20:29:59.917Z,81.74
2022-11-03T20:32:27.739Z,82.17
2022-11-03T20:34:55.752Z,82.40
2022-11-03T20:37:23.573Z,82.68
2022-11-03T20:39:53.850Z,82.94
2022-11-03T20:42:24.651Z,83.01
2022-11-03T20:44:54.796Z,83.10
2022-11-03T20:47:22.679Z,83.34
2022-11-03T20:49:50.388Z,83.37
2022-11-03T20:52:18.553Z,83.24
2022-11-03T20:54:46.289Z,83.28
2022-11-03T20:57:15.020Z,82.79
2022-11-03T20:59:42.842Z,82.69
2022-11-03T21:02:14.400Z,82.79
2022-11-03T21:04:43.154Z,82.76
2022-11-03T21:07:13.359Z,83.38
2022-11-03T21:09:41.132Z,83.04
2022-11-03T21:12:13.176Z,82.40
2022-11-03T21:15:02.054Z,82.61
2022-11-03T21:17:48.400Z,82.39
2022-11-03T21:20:16.499Z,82.94
2022-11-03T21:22:53.932Z,82.18
2022-11-03T21:25:24.371Z,82.06
2022-11-03T21:27:53.768Z,81.95
2022-11-03T21:30:23.044Z,82.85
2022-11-03T21:32:52.301Z,83.10
2022-11-03T21:35:23.606Z,81.68
2022-11-03T21:37:51.516Z,81.24
2022-11-03T21:40:19.288Z,80.55
2022-11-03T21:43:05.100Z,80.30
2022-11-03T21:45:32.999Z,79.98
2022-11-03T21:48:20.135Z,80.61
2022-11-03T21:50:48.590Z,80.10
2022-11-03T21:53:16.343Z,79.76
2022-11-03T21:55:44.184Z,79.84
2022-11-03T21:58:11.894Z,79.57
2022-11-03T22:00:39.617Z,79.83
2022-11-03T22:03:08.961Z,79.66
2022-11-03T22:05:37.069Z,79.66
2022-11-03T22:08:07.759Z,79.29
2022-11-03T22:10:38.133Z,79.39
2022-11-03T22:13:06.253Z,79.15
2022-11-03T22:15:51.667Z,79.15
2022-11-03T22:18:20.728Z,79.16
2022-11-03T22:21:08.081Z,78.83
2022-11-03T22:24:08.062Z,78.21
2022-11-03T22:26:53.271Z,78.00
2022-11-03T22:29:38.308Z,77.87
2022-11-03T22:32:13.299Z,78.12
2022-11-03T22:34:59.781Z,77.99
2022-11-03T22:37:27.511Z,77.70
2022-11-03T22:40:12.730Z,78.74
2022-11-03T22:42:57.988Z,78.26
2022-11-03T22:45:39.606Z,78.46
2022-11-03T22:48:07.838Z,79.09
2022-11-03T22:50:36.941Z,79.15
2022-11-03T22:53:24.999Z,79.87
2022-11-03T22:55:51.746Z,79.21
2022-11-03T22:58:20.014Z,79.67
2022-11-03T23:00:48.270Z,79.46
2022-11-03T23:03:16.069Z,79.13
2022-11-03T23:05:45.175Z,78.72
2022-11-03T23:08:12.882Z,78.01
2022-11-03T23:10:40.650Z,77.52
2022-11-03T23:13:08.435Z,77.28
2022-11-03T23:15:38.352Z,77.53
2022-11-03T23:18:23.582Z,77.50
2022-11-03T23:21:07.803Z,77.45
2022-11-03T23:23:53.945Z,78.01
2022-11-03T23:26:22.458Z,77.76
2022-11-03T23:28:50.270Z,77.89
2022-11-03T23:31:18.726Z,77.87
2022-11-03T23:33:46.555Z,77.91
2022-11-03T23:36:17.618Z,78.47
2022-11-03T23:38:46.098Z,78.67
2022-11-03T23:41:15.310Z,77.98
2022-11-03T23:43:43.494Z,78.01
2022-11-03T23:46:29.660Z,77.79
2022-11-03T23:48:58.660Z,77.72
2022-11-03T23:51:29.778Z,78.17
2022-11-03T23:53:58.438Z,78.30
2022-11-03T23:56:45.083Z,78.32
2022-11-03T23:59:14.198Z,77.92
